Time;durP1;ratioP1;P1;durP2;ratioP2;P2;SDS_P1;SDS_P2;PMS_P1;PMS_P2;Temp;Humidity;BMP_temperature;BMP_pressure;BME280_temperature;BME280_humidity;BME280_pressure;Samples;Min_cycle;Max_cycle;Signal;HPM_P1;HPM_P2
2021/09/30 00:00:13;;;;;;;2.60;0.63;;;19.80;68.50;;;;;;5092261;28;20032;-76
2021/09/30 00:02:39;;;;;;;1.92;0.70;;;19.80;68.30;;;;;;5092388;28;20106;-77
2021/09/30 00:05:06;;;;;;;2.50;0.68;;;19.80;69.10;;;;;;5092287;28;20519;-75
2021/09/30 00:07:32;;;;;;;1.50;0.60;;;19.70;68.30;;;;;;5080268;28;20387;-76
2021/09/30 00:09:57;;;;;;;1.67;0.70;;;19.70;68.20;;;;;;5092393;28;20035;-75
2021/09/30 00:12:29;;;;;;;3.33;0.60;;;19.80;68.20;;;;;;5091934;28;20027;-75
2021/09/30 00:15:06;;;;;;;4.78;0.80;;;19.70;68.20;;;;;;5092417;28;20024;-76
2021/09/30 00:18:05;;;;;;;1.33;0.45;;;19.70;68.20;;;;;;5091810;28;20026;-76
2021/09/30 00:45:25;;;;;;;2.15;0.60;;;19.70;67.90;;;;;;5091650;28;20036;-76
2021/09/30 00:47:55;;;;;;;3.63;0.85;;;19.60;67.80;;;;;;5090606;28;20035;-76
2021/09/30 01:58:36;;;;;;;3.92;0.80;;;19.40;67.10;;;;;;5090705;28;20058;-77
2021/09/30 02:29:12;;;;;;;3.28;0.57;;;19.30;66.80;;;;;;5070350;28;20040;-77
2021/09/30 02:58:58;;;;;;;3.38;0.68;;;19.30;66.70;;;;;;5094092;28;20541;-76
2021/09/30 03:01:27;;;;;;;2.38;0.70;;;19.20;66.50;;;;;;5093710;28;20040;-76
2021/09/30 03:03:54;;;;;;;2.58;0.60;;;19.20;66.60;;;;;;5093402;28;20077;-77
2021/09/30 03:06:21;;;;;;;2.28;0.50;;;19.20;66.50;;;;;;5093746;28;20059;-76
2021/09/30 03:08:52;;;;;;;1.27;0.60;;;19.20;66.40;;;;;;5093548;28;20028;-77
2021/09/30 03:11:21;;;;;;;2.28;0.43;;;19.20;67.30;;;;;;5092106;28;20036;-76
2021/09/30 03:13:48;;;;;;;1.80;0.90;;;19.20;66.40;;;;;;5091588;28;20020;-77
2021/09/30 03:19:04;;;;;;;2.50;0.55;;;19.20;66.40;;;;;;5092809;28;20035;-76
2021/09/30 03:24:16;;;;;;;1.80;0.60;;;19.20;66.30;;;;;;5093389;28;20111;-76
2021/09/30 03:26:45;;;;;;;1.67;0.43;;;19.20;66.30;;;;;;5095083;28;20024;-76
2021/09/30 03:29:11;;;;;;;1.45;0.60;;;19.10;66.30;;;;;;5072862;28;20120;-76
2021/09/30 03:31:38;;;;;;;1.60;0.70;;;19.10;66.30;;;;;;5085734;28;20032;-76
2021/09/30 03:34:04;;;;;;;1.63;0.70;;;19.10;66.20;;;;;;5093201;28;20468;-76
2021/09/30 03:36:31;;;;;;;0.93;0.60;;;19.10;66.20;;;;;;5092868;28;20213;-77
2021/09/30 03:38:57;;;;;;;1.45;0.57;;;19.10;66.20;;;;;;5091390;28;20024;-78
2021/09/30 03:41:23;;;;;;;1.67;0.75;;;19.10;66.20;;;;;;5092031;28;20072;-77
2021/09/30 03:43:48;;;;;;;1.00;0.60;;;19.10;66.20;;;;;;5092180;28;20028;-76
2021/09/30 03:46:14;;;;;;;1.17;0.63;;;19.10;66.20;;;;;;5092277;28;20493;-77
2021/09/30 03:48:40;;;;;;;1.65;0.73;;;19.10;66.20;;;;;;5092192;28;20035;-77
2021/09/30 04:01:27;;;;;;;1.65;0.63;;;19.00;66.00;;;;;;5092415;28;20019;-77
2021/09/30 04:03:53;;;;;;;1.83;0.77;;;19.00;65.90;;;;;;5093051;28;20027;-76
2021/09/30 04:06:18;;;;;;;1.17;0.68;;;19.00;65.90;;;;;;5090041;28;20025;-76
2021/09/30 04:08:45;;;;;;;3.45;0.82;;;19.00;65.90;;;;;;5092510;28;20039;-76
2021/09/30 04:11:11;;;;;;;1.50;0.73;;;19.00;65.90;;;;;;5092297;28;20081;-76
2021/09/30 04:13:37;;;;;;;2.10;0.90;;;19.00;65.90;;;;;;5091844;28;20480;-76
2021/09/30 04:16:03;;;;;;;3.10;0.80;;;19.00;65.90;;;;;;5092296;28;20028;-76
2021/09/30 04:18:29;;;;;;;2.95;0.90;;;19.00;65.80;;;;;;5091626;28;20031;-77
2021/09/30 04:20:55;;;;;;;3.17;1.10;;;19.00;65.80;;;;;;5092687;28;20411;-76
2021/09/30 04:23:21;;;;;;;1.80;0.90;;;19.00;65.90;;;;;;5091903;28;20028;-77
2021/09/30 04:25:46;;;;;;;2.30;1.02;;;19.00;65.80;;;;;;5090558;28;20560;-77
2021/09/30 04:28:14;;;;;;;2.38;0.88;;;19.00;65.80;;;;;;5091747;28;20447;-77
2021/09/30 04:30:40;;;;;;;2.47;0.90;;;19.00;65.80;;;;;;5090523;28;20039;-77
2021/09/30 04:33:05;;;;;;;2.30;0.98;;;19.00;65.80;;;;;;5090344;28;20016;-77
2021/09/30 04:35:31;;;;;;;1.55;0.70;;;19.00;65.70;;;;;;5089917;28;20028;-77
2021/09/30 04:37:57;;;;;;;2.97;0.90;;;19.00;65.80;;;;;;5092471;28;20026;-75
2021/09/30 04:40:23;;;;;;;2.70;0.88;;;18.90;65.70;;;;;;5090737;28;20030;-76
2021/09/30 04:42:49;;;;;;;3.35;1.05;;;18.90;65.60;;;;;;5091923;28;20060;-76
2021/09/30 04:45:14;;;;;;;2.38;0.77;;;19.00;65.70;;;;;;5089457;28;20032;-76
2021/09/30 04:47:40;;;;;;;1.73;0.57;;;18.90;65.50;;;;;;5091442;28;20028;-76
2021/09/30 04:50:07;;;;;;;3.10;1.08;;;18.90;65.60;;;;;;5091593;28;20549;-75
2021/09/30 04:52:32;;;;;;;1.70;0.70;;;18.90;65.60;;;;;;5089752;28;20069;-76
2021/09/30 04:54:58;;;;;;;1.33;0.50;;;18.90;65.50;;;;;;5090325;28;20024;-76
2021/09/30 04:57:24;;;;;;;1.45;0.77;;;18.90;65.50;;;;;;5090239;28;20407;-76
2021/09/30 04:59:49;;;;;;;3.28;0.80;;;18.90;65.50;;;;;;5091724;28;20028;-77
2021/09/30 05:02:15;;;;;;;2.00;0.68;;;18.90;65.50;;;;;;5091364;28;20028;-76
2021/09/30 05:04:41;;;;;;;3.15;0.95;;;18.90;65.50;;;;;;5091376;28;20028;-76
2021/09/30 05:07:06;;;;;;;1.65;0.60;;;18.90;65.50;;;;;;5090701;28;20043;-77
2021/09/30 05:09:33;;;;;;;1.67;0.80;;;18.80;65.40;;;;;;5091100;28;20115;-76
2021/09/30 05:12:02;;;;;;;3.00;0.68;;;18.90;65.50;;;;;;5091437;28;20023;-76
2021/09/30 05:14:28;;;;;;;1.83;0.77;;;18.90;65.50;;;;;;5090711;28;20024;-76
2021/09/30 05:16:53;;;;;;;3.20;1.00;;;18.90;65.50;;;;;;5091048;28;20157;-77
2021/09/30 05:19:20;;;;;;;1.30;0.57;;;18.90;65.50;;;;;;5090139;28;20503;-77
2021/09/30 05:21:46;;;;;;;1.35;0.50;;;18.90;65.50;;;;;;5090538;28;20035;-77
2021/09/30 05:24:12;;;;;;;2.15;0.73;;;18.90;65.50;;;;;;5090645;28;20373;-77
2021/09/30 05:26:37;;;;;;;2.65;0.80;;;18.90;65.40;;;;;;5089928;28;20500;-77
2021/09/30 05:29:03;;;;;;;1.95;0.85;;;18.80;65.30;;;;;;5087604;28;20036;-77
2021/09/30 05:31:30;;;;;;;1.58;0.60;;;18.80;65.30;;;;;;5091289;28;20028;-77
2021/09/30 05:33:55;;;;;;;1.77;0.70;;;18.80;65.40;;;;;;5091007;28;20052;-76
2021/09/30 05:36:22;;;;;;;2.38;0.82;;;18.80;65.30;;;;;;5089683;28;20059;-76
2021/09/30 05:38:48;;;;;;;2.53;0.90;;;18.80;65.40;;;;;;5090981;28;20016;-76
2021/09/30 05:41:13;;;;;;;2.67;0.80;;;18.80;65.40;;;;;;5089604;28;20020;-76
2021/09/30 05:43:42;;;;;;;1.85;0.70;;;18.80;65.40;;;;;;5090625;28;20399;-75
2021/09/30 05:46:10;;;;;;;0.98;0.47;;;18.80;65.30;;;;;;5094081;28;20383;-74
2021/09/30 05:48:36;;;;;;;2.38;1.00;;;18.80;65.30;;;;;;5094589;28;20038;-74
2021/09/30 05:51:01;;;;;;;2.15;0.80;;;18.80;65.40;;;;;;5093899;28;20111;-74
2021/09/30 05:53:27;;;;;;;2.25;0.60;;;18.80;65.30;;;;;;5093751;28;20487;-74
2021/09/30 05:55:53;;;;;;;2.45;0.70;;;18.80;65.40;;;;;;5094211;28;20016;-75
2021/09/30 05:58:18;;;;;;;1.30;0.70;;;18.80;65.60;;;;;;5094382;28;20583;-74
2021/09/30 06:14:06;;;;;;;2.88;0.80;;;18.70;65.70;;;;;;5094944;28;20583;-76
2021/09/30 06:16:35;;;;;;;3.97;0.90;;;18.70;65.70;;;;;;5094831;28;20074;-76
2021/09/30 06:19:03;;;;;;;3.47;0.60;;;18.70;65.80;;;;;;5095174;28;20498;-77
2021/09/30 06:21:28;;;;;;;5.15;0.80;;;18.70;66.70;;;;;;5094403;28;20020;-77
2021/09/30 06:23:54;;;;;;;2.50;0.93;;;18.70;66.00;;;;;;5094508;28;20104;-76
2021/09/30 06:26:20;;;;;;;6.53;1.23;;;18.70;66.10;;;;;;5094175;28;20110;-77
2021/09/30 06:28:45;;;;;;;3.22;0.80;;;18.70;66.20;;;;;;5094299;28;20554;-77
2021/09/30 06:31:11;;;;;;;4.38;1.48;;;18.70;66.40;;;;;;5094431;28;20032;-77
2021/09/30 06:33:37;;;;;;;4.90;0.85;;;18.70;66.40;;;;;;5094141;28;20036;-78
2021/09/30 06:36:03;;;;;;;4.03;1.10;;;18.70;66.40;;;;;;5093133;28;20036;-77
2021/09/30 06:38:29;;;;;;;2.65;0.73;;;18.70;66.40;;;;;;5094051;28;20028;-76
2021/09/30 06:40:54;;;;;;;4.63;0.77;;;18.70;66.30;;;;;;5094284;28;20024;-78
2021/09/30 06:43:20;;;;;;;5.38;0.80;;;18.70;66.40;;;;;;5093931;28;20499;-81
2021/09/30 06:45:45;;;;;;;5.00;1.00;;;18.70;66.30;;;;;;5094244;28;20020;-80
2021/09/30 06:48:11;;;;;;;4.10;0.82;;;18.70;66.30;;;;;;5092874;28;20065;-81
2021/09/30 06:50:37;;;;;;;2.97;0.80;;;18.70;66.30;;;;;;5093810;28;20039;-82
2021/09/30 06:53:04;;;;;;;6.25;1.00;;;18.70;66.20;;;;;;5094299;28;20028;-81
2021/09/30 06:55:31;;;;;;;1.58;0.70;;;18.70;66.30;;;;;;5094069;28;20024;-81
2021/09/30 06:57:57;;;;;;;7.97;0.77;;;18.70;66.20;;;;;;5093147;28;20027;-82
2021/09/30 07:00:23;;;;;;;5.95;1.25;;;18.70;66.20;;;;;;5093719;28;20106;-81
2021/09/30 07:02:49;;;;;;;4.53;1.02;;;18.70;66.20;;;;;;5092490;28;20425;-80
2021/09/30 07:05:15;;;;;;;3.88;0.88;;;18.70;66.20;;;;;;5093475;28;20024;-78
2021/09/30 07:07:41;;;;;;;5.68;1.20;;;18.70;66.20;;;;;;5093126;28;20028;-80
2021/09/30 07:10:11;;;;;;;3.10;0.80;;;18.70;66.10;;;;;;5093695;28;20388;-81
2021/09/30 07:12:38;;;;;;;2.58;0.77;;;18.70;66.10;;;;;;5093284;28;20024;-78
2021/09/30 07:15:05;;;;;;;2.70;1.23;;;18.70;66.10;;;;;;5093909;28;20031;-79
2021/09/30 07:17:31;;;;;;;3.60;0.98;;;18.70;66.00;;;;;;5093548;28;20017;-77
2021/09/30 07:19:58;;;;;;;2.53;0.60;;;18.70;66.00;;;;;;5093292;28;20123;-80
2021/09/30 07:22:23;;;;;;;5.88;0.95;;;18.70;66.00;;;;;;5093033;28;20073;-80
2021/09/30 07:24:49;;;;;;;3.05;0.80;;;18.70;65.90;;;;;;5092216;28;20024;-81
2021/09/30 07:27:15;;;;;;;2.13;0.90;;;18.70;66.00;;;;;;5093179;28;20498;-80
2021/09/30 07:29:41;;;;;;;4.28;0.98;;;18.70;65.90;;;;;;5092746;28;20047;-80
2021/09/30 07:32:07;;;;;;;2.15;0.90;;;18.70;65.90;;;;;;5093229;28;20021;-79
2021/09/30 07:34:33;;;;;;;2.58;0.75;;;18.70;65.80;;;;;;5093276;28;20050;-79
2021/09/30 07:36:59;;;;;;;3.13;1.05;;;18.70;65.90;;;;;;5092957;28;20016;-79
2021/09/30 07:39:25;;;;;;;3.20;1.25;;;18.70;65.90;;;;;;5092850;28;20028;-80
2021/09/30 07:41:52;;;;;;;3.08;1.13;;;18.70;65.80;;;;;;5092977;28;20441;-79
2021/09/30 07:44:18;;;;;;;3.58;0.73;;;18.70;65.80;;;;;;5091312;28;20031;-79
2021/09/30 07:46:45;;;;;;;2.00;0.65;;;18.70;65.80;;;;;;5093010;28;20503;-76
2021/09/30 07:49:12;;;;;;;2.05;0.70;;;18.70;65.80;;;;;;5092579;28;20592;-79
2021/09/30 07:51:38;;;;;;;2.45;0.90;;;18.70;65.70;;;;;;5091332;28;20041;-80
2021/09/30 07:54:05;;;;;;;3.47;0.85;;;18.70;65.70;;;;;;5093066;28;20024;-77
2021/09/30 07:56:32;;;;;;;3.17;0.60;;;18.70;65.70;;;;;;5092754;28;20027;-76
2021/09/30 07:58:58;;;;;;;2.05;0.70;;;18.70;65.60;;;;;;5092715;28;20396;-78
2021/09/30 08:01:24;;;;;;;1.85;0.80;;;18.70;65.60;;;;;;5092245;28;20082;-77
2021/09/30 08:03:50;;;;;;;1.58;0.68;;;18.70;65.60;;;;;;5092350;28;20495;-78
2021/09/30 08:06:16;;;;;;;2.17;0.70;;;18.70;65.50;;;;;;5091265;28;20020;-77
2021/09/30 08:08:42;;;;;;;5.78;1.27;;;18.70;65.60;;;;;;5091422;28;20023;-78
2021/09/30 08:11:08;;;;;;;2.67;0.85;;;18.70;65.50;;;;;;5091082;28;20036;-80
2021/09/30 08:13:33;;;;;;;1.83;0.65;;;18.70;65.50;;;;;;5092435;28;20103;-76
2021/09/30 08:16:00;;;;;;;3.55;1.02;;;18.70;65.50;;;;;;5092217;28;20036;-81
2021/09/30 08:18:26;;;;;;;2.10;0.80;;;18.70;65.40;;;;;;5092143;28;20026;-80
2021/09/30 08:20:52;;;;;;;4.78;0.80;;;18.70;65.40;;;;;;5092151;28;20016;-76
2021/09/30 08:23:18;;;;;;;5.82;0.93;;;18.80;65.60;;;;;;5090734;28;20032;-77
2021/09/30 08:25:44;;;;;;;2.20;0.77;;;18.80;65.60;;;;;;5092301;28;20099;-81
2021/09/30 08:28:10;;;;;;;4.20;0.98;;;18.80;66.60;;;;;;5091941;28;20043;-80
2021/09/30 08:30:40;;;;;;;3.42;0.98;;;18.80;65.80;;;;;;5091898;28;20133;-82
2021/09/30 08:33:11;;;;;;;1.85;0.60;;;18.80;65.80;;;;;;5092159;28;20507;-79
2021/09/30 08:35:38;;;;;;;5.32;1.05;;;18.80;65.80;;;;;;5092168;28;20106;-79
2021/09/30 08:38:05;;;;;;;3.08;0.90;;;18.80;65.70;;;;;;5092237;28;20480;-79
2021/09/30 08:40:32;;;;;;;3.85;1.30;;;18.80;65.90;;;;;;5091785;28;20032;-80
2021/09/30 08:42:57;;;;;;;5.35;1.10;;;18.80;66.00;;;;;;5092054;28;20103;-83
2021/09/30 08:45:23;;;;;;;3.88;1.00;;;18.90;66.10;;;;;;5091468;28;20099;-82
2021/09/30 08:48:00;;;;;;;3.97;0.93;;;18.80;65.90;;;;;;5091914;28;20511;-81
2021/09/30 08:50:28;;;;;;;2.22;0.80;;;18.90;66.10;;;;;;5090067;28;20106;-86
2021/09/30 08:52:54;;;;;;;4.15;0.70;;;18.80;65.90;;;;;;5091739;28;20024;-80
2021/09/30 08:55:20;;;;;;;2.85;0.80;;;18.90;65.90;;;;;;5091622;28;20479;-78
2021/09/30 08:57:47;;;;;;;2.35;0.93;;;18.90;66.80;;;;;;5090318;28;20031;-79
2021/09/30 09:00:15;;;;;;;3.60;0.80;;;18.80;66.00;;;;;;5090957;28;20055;-77
2021/09/30 09:02:47;;;;;;;3.53;0.80;;;18.80;66.00;;;;;;5088009;28;20395;-78
2021/09/30 09:05:12;;;;;;;2.05;0.60;;;18.90;66.20;;;;;;5090981;28;20052;-77
2021/09/30 09:07:38;;;;;;;6.78;0.80;;;18.90;66.10;;;;;;5090885;28;20391;-78
2021/09/30 09:10:09;;;;;;;4.70;0.73;;;18.90;66.00;;;;;;5090968;28;20391;-78
2021/09/30 09:12:36;;;;;;;2.33;0.60;;;18.90;65.90;;;;;;5090743;28;20480;-77
2021/09/30 09:15:03;;;;;;;5.72;0.82;;;18.90;65.90;;;;;;5088040;28;20141;-78
2021/09/30 09:17:29;;;;;;;1.58;0.70;;;19.00;65.90;;;;;;5090350;28;20056;-78
2021/09/30 09:19:58;;;;;;;3.63;1.27;;;19.00;65.90;;;;;;5088964;28;20024;-78
2021/09/30 09:22:36;;;;;;;2.15;0.70;;;19.00;65.90;;;;;;5087890;28;20028;-79
2021/09/30 09:25:14;;;;;;;2.60;0.80;;;19.00;65.80;;;;;;5088051;28;20012;-79
2021/09/30 09:27:53;;;;;;;1.95;0.75;;;19.00;65.80;;;;;;5090394;28;20024;-78
2021/09/30 09:30:26;;;;;;;3.70;0.77;;;19.00;65.80;;;;;;5089798;28;20109;-78
2021/09/30 09:33:07;;;;;;;3.03;1.05;;;19.00;65.80;;;;;;5090524;28;20498;-79
2021/09/30 09:36:02;;;;;;;2.42;0.85;;;19.00;65.80;;;;;;5088991;28;20047;-79
2021/09/30 09:38:30;;;;;;;3.53;1.08;;;19.00;66.00;;;;;;5087247;28;20063;-78
2021/09/30 09:41:04;;;;;;;4.05;1.30;;;19.00;66.00;;;;;;5089089;28;20036;-74
2021/09/30 09:43:42;;;;;;;2.63;0.95;;;19.00;66.00;;;;;;5090376;28;21021;-79
2021/09/30 09:46:10;;;;;;;5.18;1.10;;;19.00;65.80;;;;;;5088933;28;20380;-79
2021/09/30 09:48:36;;;;;;;5.65;1.30;;;19.00;65.80;;;;;;5089367;28;20497;-79
2021/09/30 09:51:09;;;;;;;3.25;1.10;;;19.00;65.80;;;;;;5089618;28;20407;-79
2021/09/30 09:53:35;;;;;;;3.83;1.20;;;19.10;65.90;;;;;;5090880;28;20074;-79
2021/09/30 09:56:28;;;;;;;3.33;1.10;;;19.10;65.90;;;;;;5089571;28;20426;-80
2021/09/30 09:58:57;;;;;;;4.97;1.35;;;19.00;66.00;;;;;;5089916;28;20418;-80
2021/09/30 10:01:36;;;;;;;2.58;1.00;;;19.10;66.20;;;;;;5090615;28;20487;-75
2021/09/30 10:04:02;;;;;;;4.25;0.77;;;19.10;66.20;;;;;;5090835;28;20028;-76
2021/09/30 10:06:31;;;;;;;4.47;1.02;;;19.10;66.40;;;;;;5090916;28;20027;-76
2021/09/30 10:08:58;;;;;;;8.27;1.95;;;19.10;66.40;;;;;;5090534;28;20380;-76
2021/09/30 10:11:26;;;;;;;3.33;1.45;;;19.10;68.60;;;;;;5090920;28;20395;-75
2021/09/30 10:13:52;;;;;;;5.10;1.50;;;19.10;68.30;;;;;;5090805;28;20036;-76
2021/09/30 10:16:24;;;;;;;4.70;1.38;;;19.10;70.20;;;;;;5090427;28;20488;-75
2021/09/30 10:18:51;;;;;;;3.22;1.20;;;19.10;70.60;;;;;;5090748;28;20020;-76
2021/09/30 10:21:17;;;;;;;4.57;1.10;;;19.10;70.80;;;;;;5090340;28;20020;-79
2021/09/30 10:23:50;;;;;;;4.88;1.10;;;19.10;70.50;;;;;;5091995;28;20035;-78
2021/09/30 10:26:20;;;;;;;4.63;1.30;;;19.10;70.30;;;;;;5090852;28;20058;-74
2021/09/30 10:28:46;;;;;;;4.30;1.38;;;19.10;70.40;;;;;;5090511;28;20062;-75
2021/09/30 10:31:26;;;;;;;3.78;1.30;;;19.10;70.20;;;;;;5090697;28;20028;-76
2021/09/30 10:33:53;;;;;;;3.72;1.33;;;19.10;69.90;;;;;;5094571;28;20103;-76
2021/09/30 10:36:40;;;;;;;4.30;0.93;;;19.10;70.60;;;;;;5094114;28;20360;-78
2021/09/30 10:39:13;;;;;;;3.53;0.90;;;19.10;69.60;;;;;;5093023;28;20028;-75
2021/09/30 10:41:39;;;;;;;3.40;1.17;;;19.10;69.40;;;;;;5092841;28;20034;-75
2021/09/30 10:44:19;;;;;;;3.17;0.98;;;19.10;69.20;;;;;;5094036;28;20020;-75
2021/09/30 10:46:50;;;;;;;2.83;1.20;;;19.10;69.00;;;;;;5094301;28;20059;-75
2021/09/30 10:49:43;;;;;;;5.25;1.02;;;19.10;69.00;;;;;;5094390;28;20111;-78
2021/09/30 10:52:15;;;;;;;3.13;0.98;;;19.10;68.90;;;;;;5094600;28;20065;-79
2021/09/30 10:54:45;;;;;;;2.78;0.80;;;19.10;68.80;;;;;;5093954;28;20046;-78
2021/09/30 10:57:35;;;;;;;2.13;0.93;;;19.10;68.70;;;;;;5094776;28;20036;-78
2021/09/30 11:00:05;;;;;;;3.15;1.10;;;19.10;68.70;;;;;;5093922;28;20028;-79
2021/09/30 11:03:00;;;;;;;3.28;0.80;;;19.10;68.60;;;;;;5094031;28;20024;-79
2021/09/30 11:05:36;;;;;;;3.60;1.02;;;19.10;68.50;;;;;;5093701;28;20020;-79
2021/09/30 11:08:17;;;;;;;2.45;0.80;;;19.10;68.50;;;;;;5093780;28;20021;-79
2021/09/30 11:11:01;;;;;;;2.75;1.00;;;19.10;68.40;;;;;;5093925;28;20047;-79
2021/09/30 11:13:30;;;;;;;2.85;0.88;;;19.10;68.40;;;;;;5093224;28;20543;-77
2021/09/30 11:15:58;;;;;;;3.17;1.00;;;19.20;68.50;;;;;;5093760;28;20020;-79
2021/09/30 11:18:53;;;;;;;2.30;0.70;;;19.10;68.30;;;;;;5093352;28;20082;-79
2021/09/30 11:21:31;;;;;;;5.28;0.80;;;19.20;68.30;;;;;;5091860;28;20073;-79
2021/09/30 11:23:56;;;;;;;1.75;0.80;;;19.20;68.30;;;;;;5092188;28;20399;-79
2021/09/30 11:26:22;;;;;;;4.00;0.80;;;19.10;68.20;;;;;;5093178;28;20016;-78
2021/09/30 11:28:49;;;;;;;4.05;1.00;;;19.20;68.20;;;;;;5091873;28;20032;-77
2021/09/30 11:31:33;;;;;;;2.97;0.70;;;19.20;68.20;;;;;;5093484;28;20368;-75
2021/09/30 11:34:01;;;;;;;2.92;0.93;;;19.20;68.20;;;;;;5093401;28;20024;-77
2021/09/30 11:36:36;;;;;;;6.75;1.02;;;19.20;68.10;;;;;;5093034;28;20024;-77
2021/09/30 11:39:03;;;;;;;2.72;0.80;;;19.20;68.10;;;;;;5093210;28;20051;-77
2021/09/30 11:41:34;;;;;;;2.60;0.68;;;19.30;68.20;;;;;;5092814;28;20024;-77
2021/09/30 11:44:00;;;;;;;2.00;0.80;;;19.20;68.20;;;;;;5093399;28;20085;-78
2021/09/30 11:46:28;;;;;;;3.22;0.88;;;19.30;68.20;;;;;;5092905;28;20020;-78
2021/09/30 11:49:02;;;;;;;4.82;1.13;;;19.20;68.80;;;;;;5092894;28;20032;-78
2021/09/30 11:51:32;;;;;;;3.17;0.98;;;19.30;68.00;;;;;;5092802;28;20024;-78
2021/09/30 11:53:58;;;;;;;6.30;1.33;;;19.30;68.00;;;;;;5093064;28;20383;-77
2021/09/30 11:56:23;;;;;;;4.07;0.82;;;19.30;67.90;;;;;;5092522;28;20066;-79
2021/09/30 11:59:05;;;;;;;7.00;0.88;;;19.30;67.80;;;;;;5091557;28;20418;-79
2021/09/30 12:01:48;;;;;;;2.63;0.70;;;19.30;67.80;;;;;;5092455;28;20035;-78
2021/09/30 12:04:33;;;;;;;4.50;0.80;;;19.40;67.80;;;;;;5092782;28;20032;-78
2021/09/30 12:06:58;;;;;;;3.15;1.17;;;19.30;67.60;;;;;;5092765;28;20020;-78
2021/09/30 12:09:24;;;;;;;2.30;0.80;;;19.30;67.60;;;;;;5092103;28;20036;-79
2021/09/30 12:11:52;;;;;;;4.43;0.85;;;19.30;67.50;;;;;;5092321;28;20020;-78
2021/09/30 12:14:19;;;;;;;2.00;0.65;;;19.30;67.50;;;;;;5092318;28;20028;-77
2021/09/30 12:17:00;;;;;;;2.92;0.80;;;19.30;67.40;;;;;;5092520;28;20016;-77
2021/09/30 12:19:35;;;;;;;2.72;0.75;;;19.40;67.40;;;;;;5092257;28;20103;-77
2021/09/30 12:22:02;;;;;;;4.90;0.80;;;19.40;67.40;;;;;;5092405;28;20036;-78
2021/09/30 12:24:29;;;;;;;2.80;0.80;;;19.40;68.10;;;;;;5092028;28;20392;-78
2021/09/30 12:26:56;;;;;;;3.30;0.90;;;19.30;67.20;;;;;;5092267;28;20095;-77
2021/09/30 12:29:22;;;;;;;2.95;0.60;;;19.30;67.30;;;;;;5091639;28;20085;-76
2021/09/30 12:32:04;;;;;;;2.90;0.88;;;19.30;67.30;;;;;;5092136;28;20085;-77
2021/09/30 12:34:30;;;;;;;2.97;0.90;;;19.30;67.20;;;;;;5090675;28;20488;-76
2021/09/30 12:36:56;;;;;;;3.30;0.70;;;19.30;67.20;;;;;;5091891;28;20107;-75
2021/09/30 12:39:27;;;;;;;3.45;0.88;;;19.30;67.20;;;;;;5091789;28;20395;-75
2021/09/30 12:41:53;;;;;;;3.38;1.15;;;19.30;67.10;;;;;;5092114;28;20028;-78
2021/09/30 12:44:20;;;;;;;1.92;0.70;;;19.30;67.00;;;;;;5091874;28;20483;-79
2021/09/30 12:46:54;;;;;;;2.85;0.75;;;19.30;67.00;;;;;;5092046;28;20029;-78
2021/09/30 12:49:20;;;;;;;1.55;0.57;;;19.30;67.00;;;;;;5091534;28;20036;-77
2021/09/30 12:51:46;;;;;;;3.92;0.68;;;19.30;67.30;;;;;;5090543;28;20020;-78
2021/09/30 12:54:12;;;;;;;3.10;0.60;;;19.30;66.90;;;;;;5091704;28;20051;-78
2021/09/30 12:56:38;;;;;;;2.58;0.68;;;19.30;66.90;;;;;;5091381;28;20028;-78
2021/09/30 12:59:14;;;;;;;2.15;0.70;;;19.30;66.80;;;;;;5091768;28;20387;-78
2021/09/30 13:01:44;;;;;;;3.47;0.73;;;19.30;66.80;;;;;;5091288;28;20107;-80
2021/09/30 13:04:24;;;;;;;1.60;0.50;;;19.30;66.80;;;;;;5091697;28;20012;-78
2021/09/30 13:07:01;;;;;;;2.58;0.90;;;19.30;66.80;;;;;;5091798;28;20024;-77
2021/09/30 13:09:31;;;;;;;3.78;0.70;;;19.30;66.70;;;;;;5091216;28;20028;-75
2021/09/30 13:11:56;;;;;;;2.92;0.80;;;19.40;66.70;;;;;;5089941;28;20024;-76
2021/09/30 13:14:34;;;;;;;3.58;0.70;;;19.30;66.70;;;;;;5090634;28;20031;-74
2021/09/30 13:17:06;;;;;;;3.75;0.57;;;19.30;66.60;;;;;;5090217;28;20031;-74
2021/09/30 13:19:41;;;;;;;2.70;0.82;;;19.30;66.70;;;;;;5091313;28;20028;-76
2021/09/30 13:22:07;;;;;;;1.60;0.60;;;19.30;66.70;;;;;;5091502;28;20491;-74
2021/09/30 13:24:36;;;;;;;3.58;0.70;;;19.30;66.70;;;;;;5091150;28;20658;-78
2021/09/30 13:27:03;;;;;;;2.20;0.68;;;19.30;66.60;;;;;;5091104;28;20028;-78
2021/09/30 13:29:29;;;;;;;3.10;0.60;;;19.30;66.60;;;;;;5090692;28;20063;-77
2021/09/30 13:31:55;;;;;;;3.78;0.93;;;19.30;66.80;;;;;;5091205;28;20134;-78
2021/09/30 13:34:20;;;;;;;2.83;0.70;;;19.30;66.70;;;;;;5090925;28;20036;-78
2021/09/30 13:36:46;;;;;;;3.70;0.93;;;19.30;66.70;;;;;;5091276;28;20021;-77
2021/09/30 13:39:12;;;;;;;3.95;0.75;;;19.30;66.60;;;;;;5091580;28;20050;-77
2021/09/30 13:41:38;;;;;;;3.72;1.23;;;19.30;66.60;;;;;;5090948;28;20020;-78
2021/09/30 13:44:04;;;;;;;3.80;0.70;;;19.30;66.60;;;;;;5091132;28;20024;-77
2021/09/30 13:46:30;;;;;;;2.30;0.55;;;19.30;66.60;;;;;;5090903;28;20507;-77
2021/09/30 13:48:56;;;;;;;3.63;0.95;;;19.30;66.60;;;;;;5090895;28;20063;-78
2021/09/30 13:51:22;;;;;;;3.10;0.63;;;19.30;66.60;;;;;;5090954;28;20059;-77
2021/09/30 13:53:47;;;;;;;3.20;0.75;;;19.30;66.80;;;;;;5091062;28;20027;-77
2021/09/30 13:56:13;;;;;;;1.90;0.50;;;19.30;66.70;;;;;;5091354;28;20020;-78
2021/09/30 13:58:38;;;;;;;5.53;1.58;;;19.30;66.70;;;;;;5090777;28;20035;-77
2021/09/30 14:01:04;;;;;;;2.80;0.60;;;19.30;66.70;;;;;;5090932;28;20035;-78
2021/09/30 14:03:30;;;;;;;2.70;0.50;;;19.30;66.70;;;;;;5090792;28;20047;-78
2021/09/30 14:05:55;;;;;;;3.15;0.60;;;19.30;66.70;;;;;;5091876;28;20392;-78
2021/09/30 14:08:24;;;;;;;3.38;0.50;;;19.30;66.70;;;;;;5094799;28;20452;-77
2021/09/30 14:10:49;;;;;;;2.10;0.63;;;19.30;66.70;;;;;;5095043;28;20111;-77
2021/09/30 14:13:16;;;;;;;3.45;0.70;;;19.30;66.80;;;;;;5095145;28;20047;-76
2021/09/30 14:15:45;;;;;;;3.20;0.70;;;19.30;66.70;;;;;;5094968;28;20016;-76
2021/09/30 14:18:11;;;;;;;5.13;0.70;;;19.30;66.60;;;;;;5094673;28;20032;-80
2021/09/30 14:20:37;;;;;;;4.55;1.13;;;19.30;66.60;;;;;;5093079;28;20119;-78
2021/09/30 14:23:03;;;;;;;3.72;0.95;;;19.30;66.70;;;;;;5094714;28;20402;-77
2021/09/30 14:25:29;;;;;;;2.83;0.63;;;19.30;66.80;;;;;;5094555;28;20024;-78
2021/09/30 14:27:54;;;;;;;3.60;0.70;;;19.30;66.50;;;;;;5093804;28;20123;-77
2021/09/30 14:30:20;;;;;;;2.78;0.70;;;19.20;66.40;;;;;;5092308;28;20060;-78
2021/09/30 14:32:46;;;;;;;2.90;0.70;;;19.30;66.30;;;;;;5094608;28;20107;-78
2021/09/30 14:35:14;;;;;;;2.63;0.73;;;19.30;66.30;;;;;;5093207;28;20027;-78
2021/09/30 14:37:39;;;;;;;2.42;0.63;;;19.30;66.40;;;;;;5092917;28;20395;-78
2021/09/30 14:40:05;;;;;;;1.75;0.60;;;19.20;66.30;;;;;;5093173;28;20021;-78
2021/09/30 14:42:31;;;;;;;3.97;0.77;;;19.20;66.30;;;;;;5094080;28;20500;-78
2021/09/30 14:44:58;;;;;;;4.05;0.85;;;19.20;66.40;;;;;;5094440;28;20108;-78
2021/09/30 14:47:24;;;;;;;4.72;0.90;;;19.20;66.40;;;;;;5094065;28;20016;-78
2021/09/30 14:49:50;;;;;;;1.88;0.70;;;19.20;66.40;;;;;;5094307;28;20496;-78
2021/09/30 14:52:17;;;;;;;3.22;0.73;;;19.20;66.50;;;;;;5094490;28;20024;-78
2021/09/30 14:54:43;;;;;;;3.08;0.60;;;19.20;66.40;;;;;;5094385;28;20099;-77
2021/09/30 14:57:09;;;;;;;2.33;0.50;;;19.20;66.50;;;;;;5094012;28;20108;-78
2021/09/30 14:59:35;;;;;;;2.58;0.85;;;19.20;66.50;;;;;;5093069;28;20105;-77
2021/09/30 15:02:02;;;;;;;1.88;0.68;;;19.20;66.50;;;;;;5093146;28;20031;-78
2021/09/30 15:04:27;;;;;;;5.10;0.60;;;19.20;66.60;;;;;;5093235;28;20495;-78
2021/09/30 15:06:53;;;;;;;3.63;1.08;;;19.20;66.60;;;;;;5093579;28;20027;-77
2021/09/30 15:09:19;;;;;;;2.90;0.60;;;19.20;66.60;;;;;;5093986;28;20048;-78
2021/09/30 15:11:45;;;;;;;4.45;0.60;;;19.20;66.70;;;;;;5094130;28;20107;-79
2021/09/30 15:14:11;;;;;;;8.20;1.00;;;19.20;66.70;;;;;;5093922;28;20027;-80
2021/09/30 15:16:41;;;;;;;4.70;0.80;;;19.20;66.80;;;;;;5093572;28;20376;-80
2021/09/30 15:19:15;;;;;;;3.63;1.23;;;19.20;66.50;;;;;;5091517;28;20028;-77
2021/09/30 15:21:41;;;;;;;3.53;1.45;;;19.20;66.50;;;;;;5089084;28;20403;-77
2021/09/30 15:24:07;;;;;;;3.45;0.80;;;19.20;66.50;;;;;;5091862;28;20089;-78
2021/09/30 15:26:34;;;;;;;3.35;0.80;;;19.20;66.70;;;;;;5091695;28;20021;-79
2021/09/30 15:29:00;;;;;;;3.10;0.93;;;19.10;66.60;;;;;;5091590;28;20480;-78
2021/09/30 15:31:27;;;;;;;2.40;0.70;;;19.10;66.60;;;;;;5092406;28;20035;-78
2021/09/30 15:33:54;;;;;;;3.03;1.13;;;19.10;66.70;;;;;;5092524;28;20048;-78
2021/09/30 15:36:23;;;;;;;4.80;1.20;;;19.20;66.70;;;;;;5093350;28;20028;-78
2021/09/30 15:38:49;;;;;;;5.90;0.70;;;19.20;66.80;;;;;;5093186;28;20106;-77
2021/09/30 15:41:15;;;;;;;2.33;0.77;;;19.20;66.90;;;;;;5093551;28;20028;-79
2021/09/30 15:43:41;;;;;;;2.67;0.80;;;19.20;66.90;;;;;;5092730;28;20024;-75
2021/09/30 15:46:06;;;;;;;2.53;0.70;;;19.20;67.60;;;;;;5093485;28;20032;-74
2021/09/30 15:48:32;;;;;;;2.60;0.90;;;19.20;66.90;;;;;;5092860;28;20028;-75
2021/09/30 15:50:58;;;;;;;3.42;0.80;;;19.20;66.90;;;;;;5093091;28;20024;-74